Time;durP1;ratioP1;P1;durP2;ratioP2;P2;SDS_P1;SDS_P2;PMS_P1;PMS_P2;Temp;Humidity;BMP_temperature;BMP_pressure;BME280_temperature;BME280_humidity;BME280_pressure;Samples;Min_cycle;Max_cycle;Signal;HPM_P1;HPM_P2
2022/06/23 00:00:17;;;;;;;4.70;4.40;;;;;;;;;;5064921;28;24415;-46
2022/06/23 00:02:42;;;;;;;4.65;4.35;;;;;;;;;;5055300;28;25078;-46
2022/06/23 00:05:12;;;;;;;4.90;4.60;;;;;;;;;;5070040;28;24433;-46
2022/06/23 00:07:38;;;;;;;5.30;4.90;;;;;;;;;;5071632;28;24490;-46
2022/06/23 00:10:12;;;;;;;5.30;4.90;;;;;;;;;;5068733;28;24980;-47
2022/06/23 00:12:38;;;;;;;5.70;5.30;;;;;;;;;;5067643;28;24418;-46
2022/06/23 00:15:04;;;;;;;5.90;5.40;;;;;;;;;;5067081;28;24515;-47
2022/06/23 00:17:43;;;;;;;5.13;4.80;;;;;;;;;;5083396;28;24563;-46
2022/06/23 00:20:13;;;;;;;5.53;5.05;;;;;;;;;;5064460;28;24494;-46
2022/06/23 00:22:39;;;;;;;5.40;5.00;;;;;;;;;;5073434;28;24422;-47
2022/06/23 00:25:05;;;;;;;4.95;4.65;;;;;;;;;;5067608;28;24448;-47
2022/06/23 00:27:33;;;;;;;4.90;4.60;;;;;;;;;;5067852;28;24391;-46
2022/06/23 00:30:17;;;;;;;5.20;4.80;;;;;;;;;;5063725;28;25263;-46
2022/06/23 00:32:42;;;;;;;5.40;5.00;;;;;;;;;;5079065;28;24422;-46
2022/06/23 00:35:12;;;;;;;5.13;4.72;;;;;;;;;;5075798;28;24499;-46
2022/06/23 00:37:43;;;;;;;5.27;4.77;;;;;;;;;;5084117;28;25041;-46
2022/06/23 00:40:12;;;;;;;5.40;5.00;;;;;;;;;;5067498;28;25019;-45
2022/06/23 00:42:39;;;;;;;5.63;5.15;;;;;;;;;;5070568;28;24427;-46
2022/06/23 00:45:10;;;;;;;5.43;4.97;;;;;;;;;;5075443;28;24523;-46
2022/06/23 00:47:38;;;;;;;5.40;5.10;;;;;;;;;;5074957;28;24847;-46
2022/06/23 00:50:15;;;;;;;5.60;5.20;;;;;;;;;;5074332;28;24427;-47
2022/06/23 00:52:44;;;;;;;5.70;5.20;;;;;;;;;;5068433;28;25054;-47
2022/06/23 00:55:13;;;;;;;6.20;5.60;;;;;;;;;;5071243;28;24440;-48
2022/06/23 00:57:41;;;;;;;6.32;5.82;;;;;;;;;;5064109;28;25040;-47
2022/06/23 01:00:16;;;;;;;6.30;5.80;;;;;;;;;;5066062;28;24842;-47
2022/06/23 01:02:47;;;;;;;6.32;5.72;;;;;;;;;;5070764;28;25114;-45
2022/06/23 01:05:18;;;;;;;6.70;6.10;;;;;;;;;;5063621;28;24458;-47
2022/06/23 01:07:44;;;;;;;6.40;5.90;;;;;;;;;;5066019;28;25039;-47
2022/06/23 01:10:21;;;;;;;6.90;6.40;;;;;;;;;;5065176;28;24965;-47
2022/06/23 01:12:57;;;;;;;6.65;6.20;;;;;;;;;;5072503;28;24426;-47
2022/06/23 01:15:33;;;;;;;6.20;5.80;;;;;;;;;;5075738;28;24825;-46
2022/06/23 01:18:02;;;;;;;6.22;5.82;;;;;;;;;;5066936;28;24498;-47
2022/06/23 01:20:38;;;;;;;6.22;5.75;;;;;;;;;;5058025;28;24449;-47
2022/06/23 01:23:14;;;;;;;6.88;6.28;;;;;;;;;;5065987;28;24453;-46
2022/06/23 01:25:59;;;;;;;6.73;6.23;;;;;;;;;;5053910;28;24458;-46
2022/06/23 01:28:27;;;;;;;6.63;6.13;;;;;;;;;;5068502;28;25053;-47
2022/06/23 01:31:10;;;;;;;6.60;6.10;;;;;;;;;;5083641;28;24473;-47
2022/06/23 01:33:49;;;;;;;6.70;6.20;;;;;;;;;;5064528;28;24519;-47
2022/06/23 01:36:20;;;;;;;6.85;6.35;;;;;;;;;;5053672;28;24418;-48
2022/06/23 01:38:47;;;;;;;6.68;6.13;;;;;;;;;;5084832;28;24417;-48
2022/06/23 01:41:26;;;;;;;7.43;6.93;;;;;;;;;;5064448;28;24512;-48
2022/06/23 01:44:04;;;;;;;7.30;6.60;;;;;;;;;;5064418;28;24500;-48
2022/06/23 01:46:34;;;;;;;6.63;6.13;;;;;;;;;;5064040;28;24435;-47
2022/06/23 01:49:19;;;;;;;6.07;5.68;;;;;;;;;;5065644;28;24431;-48
2022/06/23 01:51:49;;;;;;;6.60;6.10;;;;;;;;;;5064770;28;24550;-47
2022/06/23 01:54:20;;;;;;;6.60;6.10;;;;;;;;;;5081078;28;24465;-47
2022/06/23 01:56:58;;;;;;;6.80;6.30;;;;;;;;;;5070764;28;24526;-47
2022/06/23 01:59:42;;;;;;;5.90;5.50;;;;;;;;;;5067738;28;24422;-46
2022/06/23 02:02:10;;;;;;;5.68;5.28;;;;;;;;;;5066373;28;24437;-46
2022/06/23 02:04:50;;;;;;;5.50;5.15;;;;;;;;;;5063764;28;24996;-46
2022/06/23 02:07:24;;;;;;;6.00;5.50;;;;;;;;;;5068000;28;24460;-46
2022/06/23 02:09:53;;;;;;;5.60;5.30;;;;;;;;;;5068737;28;25109;-46
2022/06/23 02:12:22;;;;;;;5.30;5.00;;;;;;;;;;5066743;28;24461;-46
2022/06/23 02:14:50;;;;;;;5.30;5.00;;;;;;;;;;5055590;28;24528;-46
2022/06/23 02:17:25;;;;;;;5.80;5.40;;;;;;;;;;5067546;28;24990;-46
2022/06/23 02:19:53;;;;;;;5.53;5.13;;;;;;;;;;5074083;28;24560;-47
2022/06/23 02:22:31;;;;;;;5.35;4.95;;;;;;;;;;5069416;28;24422;-47
2022/06/23 02:25:05;;;;;;;5.00;4.70;;;;;;;;;;5060621;28;24425;-47
2022/06/23 02:27:43;;;;;;;5.40;5.00;;;;;;;;;;5065407;28;25301;-46
2022/06/23 02:30:11;;;;;;;5.00;4.70;;;;;;;;;;5057032;28;24438;-47
2022/06/23 02:32:54;;;;;;;5.50;5.10;;;;;;;;;;5062597;28;24426;-46
2022/06/23 02:35:20;;;;;;;5.20;4.90;;;;;;;;;;5078754;28;24426;-48
2022/06/23 02:37:51;;;;;;;5.88;5.38;;;;;;;;;;5064850;28;24460;-46
2022/06/23 02:40:22;;;;;;;6.55;5.95;;;;;;;;;;5064889;28;24529;-47
2022/06/23 02:42:52;;;;;;;5.95;5.50;;;;;;;;;;5061096;28;24819;-47
2022/06/23 02:45:36;;;;;;;6.68;6.28;;;;;;;;;;5072263;28;24442;-47
2022/06/23 02:48:21;;;;;;;6.70;6.20;;;;;;;;;;5064867;28;24431;-47
2022/06/23 02:50:52;;;;;;;7.05;6.35;;;;;;;;;;5064503;28;24785;-47
2022/06/23 02:53:52;;;;;;;7.10;6.60;;;;;;;;;;5059969;28;24418;-47
2022/06/23 02:56:34;;;;;;;8.00;7.30;;;;;;;;;;4980637;28;24425;-47
2022/06/23 02:59:08;;;;;;;7.60;7.20;;;;;;;;;;5058995;28;24437;-47
2022/06/23 03:01:41;;;;;;;8.82;8.02;;;;;;;;;;5065888;28;24976;-47
2022/06/23 03:04:12;;;;;;;9.80;9.00;;;;;;;;;;5068231;28;24434;-47
2022/06/23 03:06:40;;;;;;;7.90;7.40;;;;;;;;;;5065579;28;24505;-47
2022/06/23 03:09:20;;;;;;;8.20;7.70;;;;;;;;;;5061621;28;24437;-47
2022/06/23 03:11:54;;;;;;;7.77;7.27;;;;;;;;;;5083855;28;24426;-47
2022/06/23 03:14:28;;;;;;;8.13;7.63;;;;;;;;;;5061841;28;24528;-47
2022/06/23 03:16:56;;;;;;;7.75;7.18;;;;;;;;;;5063121;28;24426;-47
2022/06/23 03:19:29;;;;;;;7.90;7.40;;;;;;;;;;5078718;28;24425;-46
2022/06/23 03:22:07;;;;;;;7.60;7.10;;;;;;;;;;5077616;28;24518;-47
2022/06/23 03:24:35;;;;;;;7.50;7.00;;;;;;;;;;5064279;28;25229;-46
2022/06/23 03:27:19;;;;;;;7.97;7.40;;;;;;;;;;5072385;28;24437;-46
2022/06/23 03:29:46;;;;;;;7.73;7.20;;;;;;;;;;5066982;28;24427;-46
2022/06/23 03:32:14;;;;;;;7.82;7.30;;;;;;;;;;5085027;28;24430;-45
2022/06/23 03:34:44;;;;;;;7.80;7.20;;;;;;;;;;5066525;28;24873;-47
2022/06/23 03:37:41;;;;;;;7.50;6.90;;;;;;;;;;5066006;28;24464;-46
2022/06/23 03:43:05;;;;;;;8.27;7.57;;;;;;;;;;5056087;28;24873;-47
2022/06/23 03:45:35;;;;;;;7.97;7.38;;;;;;;;;;5062627;28;24880;-47
2022/06/23 03:48:11;;;;;;;7.40;6.80;;;;;;;;;;5062092;28;24426;-47
2022/06/23 03:50:48;;;;;;;7.65;7.05;;;;;;;;;;5066172;28;24433;-47
2022/06/23 03:53:17;;;;;;;8.00;7.40;;;;;;;;;;5065404;28;24979;-46
2022/06/23 03:55:46;;;;;;;7.28;6.68;;;;;;;;;;5063870;28;24439;-46
2022/06/23 03:58:30;;;;;;;7.78;7.18;;;;;;;;;;5062519;28;24473;-45
2022/06/23 04:01:10;;;;;;;7.55;6.90;;;;;;;;;;5064654;28;24432;-45
2022/06/23 04:03:41;;;;;;;7.45;6.85;;;;;;;;;;5057744;28;24567;-46
2022/06/23 04:06:13;;;;;;;7.90;7.20;;;;;;;;;;5065508;28;24589;-46
2022/06/23 04:08:48;;;;;;;7.43;6.83;;;;;;;;;;5058781;28;24475;-45
2022/06/23 04:14:01;;;;;;;7.00;6.50;;;;;;;;;;5064259;28;24449;-47
2022/06/23 04:16:26;;;;;;;7.20;6.60;;;;;;;;;;5079515;28;24446;-48
2022/06/23 04:18:52;;;;;;;7.40;6.80;;;;;;;;;;5065539;28;24453;-48
2022/06/23 04:21:22;;;;;;;7.20;6.60;;;;;;;;;;5057247;28;24493;-49
2022/06/23 04:23:50;;;;;;;7.18;6.57;;;;;;;;;;5070885;28;24429;-48
2022/06/23 04:26:24;;;;;;;7.35;6.53;;;;;;;;;;5069085;28;24430;-49
2022/06/23 04:28:51;;;;;;;7.57;6.90;;;;;;;;;;5062972;28;24495;-48
2022/06/23 04:31:24;;;;;;;7.65;7.05;;;;;;;;;;5064445;28;24560;-49
2022/06/23 04:33:50;;;;;;;6.70;6.23;;;;;;;;;;5075997;28;24414;-48
2022/06/23 04:36:35;;;;;;;7.13;6.63;;;;;;;;;;5053307;28;24467;-47
2022/06/23 04:39:05;;;;;;;6.20;5.80;;;;;;;;;;5081439;28;24494;-49
2022/06/23 04:41:42;;;;;;;6.72;6.32;;;;;;;;;;5062757;28;24429;-48
2022/06/23 04:44:25;;;;;;;6.60;6.20;;;;;;;;;;5069150;28;24435;-48
2022/06/23 04:46:52;;;;;;;7.00;6.50;;;;;;;;;;5066332;28;24423;-48
2022/06/23 04:49:27;;;;;;;8.30;7.70;;;;;;;;;;5068914;28;25121;-48
2022/06/23 04:51:56;;;;;;;8.40;7.80;;;;;;;;;;5068922;28;24509;-48
2022/06/23 04:54:47;;;;;;;6.88;6.47;;;;;;;;;;5061284;28;24480;-48
2022/06/23 04:57:17;;;;;;;6.70;6.20;;;;;;;;;;5041103;28;24488;-46
2022/06/23 04:59:44;;;;;;;6.97;6.38;;;;;;;;;;5077944;28;24849;-47
2022/06/23 05:02:21;;;;;;;7.23;6.83;;;;;;;;;;5067349;28;24498;-47
2022/06/23 05:04:51;;;;;;;6.00;5.60;;;;;;;;;;5061050;28;24427;-47
2022/06/23 05:07:25;;;;;;;5.75;5.35;;;;;;;;;;5059186;28;24792;-48
2022/06/23 05:09:51;;;;;;;6.75;6.25;;;;;;;;;;5066055;28;24414;-48
2022/06/23 05:12:20;;;;;;;6.55;6.05;;;;;;;;;;5063540;28;24427;-48
2022/06/23 05:15:11;;;;;;;6.60;6.13;;;;;;;;;;5065594;28;24395;-48
2022/06/23 05:17:41;;;;;;;5.72;5.32;;;;;;;;;;5064802;28;24480;-47
2022/06/23 05:20:07;;;;;;;6.10;5.70;;;;;;;;;;5064795;28;24415;-48
2022/06/23 05:22:32;;;;;;;6.00;5.50;;;;;;;;;;5057189;28;24515;-48
2022/06/23 05:25:00;;;;;;;5.30;5.00;;;;;;;;;;5064474;28;24782;-47
2022/06/23 05:27:30;;;;;;;5.40;5.00;;;;;;;;;;5065189;28;25159;-47
2022/06/23 05:30:00;;;;;;;6.00;5.40;;;;;;;;;;5065431;28;24928;-46
2022/06/23 05:32:28;;;;;;;5.80;5.40;;;;;;;;;;5083228;28;24441;-47
2022/06/23 05:35:05;;;;;;;5.85;5.35;;;;;;;;;;5064716;28;25278;-47
2022/06/23 05:37:38;;;;;;;6.00;5.50;;;;;;;;;;5065105;28;24409;-47
2022/06/23 05:40:09;;;;;;;5.90;5.50;;;;;;;;;;5062816;28;24438;-47
2022/06/23 05:42:37;;;;;;;6.60;6.10;;;;;;;;;;5064523;28;24461;-47
2022/06/23 05:45:05;;;;;;;7.40;6.90;;;;;;;;;;5062277;28;24443;-47
2022/06/23 05:47:31;;;;;;;6.78;6.18;;;;;;;;;;5064091;28;24420;-47
2022/06/23 05:49:57;;;;;;;6.20;5.90;;;;;;;;;;5067163;28;24457;-47
2022/06/23 05:52:29;;;;;;;6.20;5.70;;;;;;;;;;5062717;28;24465;-47
2022/06/23 05:54:57;;;;;;;6.40;5.90;;;;;;;;;;5062300;28;24430;-48
2022/06/23 05:57:33;;;;;;;6.45;5.88;;;;;;;;;;5061887;28;24411;-48
2022/06/23 06:00:10;;;;;;;6.00;5.50;;;;;;;;;;5061554;28;24722;-49
2022/06/23 06:02:38;;;;;;;6.20;5.80;;;;;;;;;;5071090;28;24528;-48
2022/06/23 06:05:04;;;;;;;6.20;5.80;;;;;;;;;;5062142;28;24418;-48
2022/06/23 06:07:34;;;;;;;7.45;6.75;;;;;;;;;;5064731;28;24449;-48
2022/06/23 06:10:02;;;;;;;6.60;6.10;;;;;;;;;;5062024;28;24450;-48
2022/06/23 06:12:31;;;;;;;5.70;5.30;;;;;;;;;;5066620;28;24458;-48
2022/06/23 06:15:07;;;;;;;7.47;6.88;;;;;;;;;;5077940;28;25052;-48
2022/06/23 06:17:33;;;;;;;5.30;4.90;;;;;;;;;;5050262;28;24922;-48
2022/06/23 06:20:03;;;;;;;5.78;5.28;;;;;;;;;;5054601;28;24418;-48
2022/06/23 06:22:46;;;;;;;5.80;5.40;;;;;;;;;;5060510;28;24419;-46
2022/06/23 06:25:22;;;;;;;6.87;6.27;;;;;;;;;;5059634;28;24655;-46
2022/06/23 06:27:47;;;;;;;5.43;5.10;;;;;;;;;;5059356;28;25035;-47
2022/06/23 06:30:15;;;;;;;5.50;5.20;;;;;;;;;;5061130;28;24564;-46
2022/06/23 06:32:42;;;;;;;6.57;5.97;;;;;;;;;;5058392;28;24518;-46
2022/06/23 06:35:16;;;;;;;6.10;5.70;;;;;;;;;;5060624;28;24560;-46
2022/06/23 06:37:44;;;;;;;6.40;6.00;;;;;;;;;;5066184;28;24410;-47
2022/06/23 06:40:09;;;;;;;6.43;5.93;;;;;;;;;;5063207;28;24470;-47
2022/06/23 06:42:38;;;;;;;5.70;5.20;;;;;;;;;;5058461;28;24446;-47
2022/06/23 06:45:06;;;;;;;5.30;4.90;;;;;;;;;;5063303;28;24956;-47
2022/06/23 06:47:33;;;;;;;5.25;4.95;;;;;;;;;;5046444;28;24472;-47
2022/06/23 06:50:02;;;;;;;5.73;5.40;;;;;;;;;;5045926;28;24460;-47
2022/06/23 06:52:28;;;;;;;6.82;6.32;;;;;;;;;;5043852;28;24427;-47
2022/06/23 06:55:03;;;;;;;6.45;5.90;;;;;;;;;;5048314;28;24407;-47
2022/06/23 06:57:31;;;;;;;6.30;5.80;;;;;;;;;;5045816;28;24426;-47
2022/06/23 07:00:08;;;;;;;5.72;5.32;;;;;;;;;;5046119;28;24940;-47
2022/06/23 07:02:39;;;;;;;5.57;5.18;;;;;;;;;;5046378;28;24419;-46
2022/06/23 07:05:19;;;;;;;6.00;5.50;;;;;;;;;;5044729;28;24501;-47
2022/06/23 07:07:46;;;;;;;6.20;5.70;;;;;;;;;;5044523;28;25046;-47
2022/06/23 07:10:22;;;;;;;6.80;6.30;;;;;;;;;;5045194;28;24427;-47
2022/06/23 07:12:51;;;;;;;6.30;5.80;;;;;;;;;;5046131;28;24426;-48
2022/06/23 07:15:31;;;;;;;6.40;6.00;;;;;;;;;;5045410;28;24892;-46
2022/06/23 07:18:02;;;;;;;6.30;5.90;;;;;;;;;;5044192;28;24400;-46
2022/06/23 07:20:33;;;;;;;6.68;6.07;;;;;;;;;;5045563;28;24427;-46
2022/06/23 07:22:59;;;;;;;6.00;5.60;;;;;;;;;;5044406;28;24402;-46
2022/06/23 07:25:34;;;;;;;5.88;5.47;;;;;;;;;;5045762;28;24464;-46
2022/06/23 07:28:01;;;;;;;5.80;5.40;;;;;;;;;;5045835;28;24398;-47
2022/06/23 07:30:29;;;;;;;5.70;5.20;;;;;;;;;;5045736;28;24497;-46
2022/06/23 07:33:00;;;;;;;5.50;5.10;;;;;;;;;;5045680;28;24990;-46
2022/06/23 07:35:34;;;;;;;4.70;4.40;;;;;;;;;;5045926;28;24408;-46
2022/06/23 07:38:11;;;;;;;5.45;5.05;;;;;;;;;;5045466;28;24670;-46
2022/06/23 07:40:46;;;;;;;4.68;4.38;;;;;;;;;;5045936;28;24403;-47
2022/06/23 07:43:18;;;;;;;5.72;5.22;;;;;;;;;;5045646;28;24398;-46
2022/06/23 07:45:55;;;;;;;5.10;4.60;;;;;;;;;;5045586;28;24416;-46
2022/06/23 07:48:20;;;;;;;4.80;4.50;;;;;;;;;;5045436;28;24399;-47
2022/06/23 07:50:46;;;;;;;5.13;4.73;;;;;;;;;;5045516;28;24438;-47
2022/06/23 07:53:17;;;;;;;4.97;4.65;;;;;;;;;;5045364;28;24440;-47
2022/06/23 07:55:43;;;;;;;5.95;5.35;;;;;;;;;;5058717;28;24967;-46
2022/06/23 07:58:08;;;;;;;5.50;5.10;;;;;;;;;;5065539;28;24399;-47
2022/06/23 08:00:37;;;;;;;5.60;5.20;;;;;;;;;;5065579;28;24393;-46
2022/06/23 08:03:05;;;;;;;5.18;4.80;;;;;;;;;;5065110;28;24430;-45
2022/06/23 08:05:34;;;;;;;5.40;5.00;;;;;;;;;;5065439;28;24516;-46
2022/06/23 08:08:00;;;;;;;5.10;4.80;;;;;;;;;;5065431;28;24542;-46
2022/06/23 08:10:27;;;;;;;4.80;4.40;;;;;;;;;;5063553;28;24694;-47
2022/06/23 08:13:00;;;;;;;5.10;4.63;;;;;;;;;;5065290;28;24426;-47
2022/06/23 08:18:17;;;;;;;5.80;5.30;;;;;;;;;;5069199;28;24422;-48
2022/06/23 08:20:45;;;;;;;4.78;4.40;;;;;;;;;;5069240;28;24382;-47
2022/06/23 08:23:11;;;;;;;4.50;4.20;;;;;;;;;;5068978;28;24761;-47
2022/06/23 08:25:37;;;;;;;5.20;4.80;;;;;;;;;;5069280;28;24397;-47
2022/06/23 08:28:04;;;;;;;5.50;5.00;;;;;;;;;;5068697;28;24769;-47
2022/06/23 08:30:29;;;;;;;5.15;4.85;;;;;;;;;;5069001;28;24406;-47
2022/06/23 08:32:55;;;;;;;6.40;5.50;;;;;;;;;;5069180;28;24490;-46
2022/06/23 08:35:24;;;;;;;5.70;5.20;;;;;;;;;;5068972;28;24493;-47
2022/06/23 08:37:56;;;;;;;5.10;4.80;;;;;;;;;;5069132;28;24445;-47
2022/06/23 08:40:27;;;;;;;4.95;4.65;;;;;;;;;;5068484;28;24992;-46
2022/06/23 08:43:03;;;;;;;5.10;4.80;;;;;;;;;;5068840;28;24415;-47
2022/06/23 08:45:35;;;;;;;4.60;4.30;;;;;;;;;;5068775;28;25043;-47
2022/06/23 08:48:04;;;;;;;4.70;4.40;;;;;;;;;;5068421;28;25156;-47
2022/06/23 08:50:33;;;;;;;4.95;4.65;;;;;;;;;;5068388;28;24473;-46
2022/06/23 08:53:02;;;;;;;4.90;4.50;;;;;;;;;;5068586;28;24470;-47
2022/06/23 08:55:32;;;;;;;5.00;4.70;;;;;;;;;;5067984;28;21353;-46
2022/06/23 08:58:02;;;;;;;5.30;4.90;;;;;;;;;;5068763;28;24916;-46
2022/06/23 09:00:31;;;;;;;5.20;4.80;;;;;;;;;;5068507;28;24464;-48
2022/06/23 09:03:00;;;;;;;4.80;4.50;;;;;;;;;;5068237;28;24514;-47
2022/06/23 09:05:49;;;;;;;4.80;4.50;;;;;;;;;;5068319;28;24414;-47
2022/06/23 09:08:20;;;;;;;4.25;3.95;;;;;;;;;;5068224;28;24387;-47
2022/06/23 09:10:58;;;;;;;4.82;4.43;;;;;;;;;;5068349;28;24491;-47
2022/06/23 09:13:42;;;;;;;5.80;5.20;;;;;;;;;;5068024;28;24475;-46
2022/06/23 09:16:07;;;;;;;4.30;4.00;;;;;;;;;;5068273;28;24387;-46
2022/06/23 09:18:47;;;;;;;4.80;4.40;;;;;;;;;;5068551;28;24406;-47
2022/06/23 09:21:26;;;;;;;4.90;4.60;;;;;;;;;;5066682;28;24491;-46
2022/06/23 09:23:57;;;;;;;4.90;4.50;;;;;;;;;;5065912;28;24410;-46
2022/06/23 09:26:29;;;;;;;4.70;4.30;;;;;;;;;;5051190;28;24790;-46
2022/06/23 09:28:56;;;;;;;3.60;3.30;;;;;;;;;;5045890;28;24408;-46
2022/06/23 09:31:51;;;;;;;3.30;3.10;;;;;;;;;;5044374;28;24760;-46
2022/06/23 09:34:34;;;;;;;3.00;2.80;;;;;;;;;;5027082;28;24403;-47
2022/06/23 09:37:02;;;;;;;3.45;3.03;;;;;;;;;;5047892;28;24491;-47
2022/06/23 09:39:45;;;;;;;3.10;2.87;;;;;;;;;;5045599;28;24691;-46
2022/06/23 09:42:22;;;;;;;3.50;3.20;;;;;;;;;;5047808;28;24431;-47
2022/06/23 09:44:58;;;;;;;3.27;3.00;;;;;;;;;;5046983;28;24862;-48
2022/06/23 09:47:42;;;;;;;3.30;3.10;;;;;;;;;;5047548;28;24426;-47
2022/06/23 09:50:22;;;;;;;3.22;3.00;;;;;;;;;;5046733;28;24582;-47
2022/06/23 09:53:06;;;;;;;2.70;2.60;;;;;;;;;;5046717;28;25205;-48
2022/06/23 09:55:53;;;;;;;2.97;2.78;;;;;;;;;;5054645;28;24431;-47
2022/06/23 09:58:24;;;;;;;3.05;2.85;;;;;;;;;;5047580;28;24442;-48
2022/06/23 10:00:49;;;;;;;2.50;2.40;;;;;;;;;;5046871;28;24426;-48
2022/06/23 10:03:35;;;;;;;3.05;2.85;;;;;;;;;;5045331;28;24387;-48
2022/06/23 10:06:16;;;;;;;4.00;3.03;;;;;;;;;;5044292;28;24493;-48
2022/06/23 10:08:46;;;;;;;3.00;2.80;;;;;;;;;;5047466;28;24449;-47
2022/06/23 10:11:17;;;;;;;3.08;2.88;;;;;;;;;;5044881;28;24522;-49
2022/06/23 10:14:00;;;;;;;3.03;2.83;;;;;;;;;;5047398;28;24411;-46
2022/06/23 10:16:26;;;;;;;3.00;2.80;;;;;;;;;;5044666;28;24399;-47
2022/06/23 10:18:56;;;;;;;3.60;3.40;;;;;;;;;;5046729;28;24750;-47
2022/06/23 10:21:33;;;;;;;2.80;2.70;;;;;;;;;;5044855;28;25350;-47
2022/06/23 10:24:04;;;;;;;3.25;3.05;;;;;;;;;;5046318;28;24523;-47
2022/06/23 10:26:35;;;;;;;3.35;3.15;;;;;;;;;;5045170;28;24774;-47
2022/06/23 10:29:11;;;;;;;3.90;3.60;;;;;;;;;;5046727;28;24386;-48
2022/06/23 10:31:43;;;;;;;4.10;3.80;;;;;;;;;;5046913;28;24465;-47
2022/06/23 10:34:20;;;;;;;4.00;3.70;;;;;;;;;;5046774;28;24453;-46
2022/06/23 10:36:54;;;;;;;3.50;3.30;;;;;;;;;;5046916;28;24395;-48
2022/06/23 10:39:32;;;;;;;3.70;3.50;;;;;;;;;;5045611;28;24387;-47
2022/06/23 10:42:12;;;;;;;3.80;3.60;;;;;;;;;;5046770;28;24766;-47
2022/06/23 10:44:56;;;;;;;3.80;3.50;;;;;;;;;;5046720;28;24431;-47
2022/06/23 10:47:29;;;;;;;4.00;3.60;;;;;;;;;;5046536;28;24446;-47
2022/06/23 10:50:01;;;;;;;3.90;3.70;;;;;;;;;;5046712;28;24407;-47
2022/06/23 10:52:40;;;;;;;3.60;3.40;;;;;;;;;;5050445;28;24510;-47
2022/06/23 10:55:22;;;;;;;3.83;3.60;;;;;;;;;;5066772;28;24410;-48
2022/06/23 10:58:07;;;;;;;3.70;3.40;;;;;;;;;;5066359;28;24379;-48
2022/06/23 11:00:42;;;;;;;3.70;3.20;;;;;;;;;;5066164;28;24710;-46
2022/06/23 11:03:07;;;;;;;3.88;3.30;;;;;;;;;;5066346;28;24391;-47
2022/06/23 11:05:48;;;;;;;3.30;3.00;;;;;;;;;;5066359;28;24398;-48
2022/06/23 11:08:25;;;;;;;3.70;3.40;;;;;;;;;;5066315;28;25192;-48
2022/06/23 11:11:08;;;;;;;3.10;2.90;;;;;;;;;;5066105;28;24445;-47
2022/06/23 11:13:42;;;;;;;3.20;2.90;;;;;;;;;;5066245;28;24917;-48
2022/06/23 11:16:13;;;;;;;3.00;2.80;;;;;;;;;;5066464;28;24832;-48
2022/06/23 11:18:38;;;;;;;2.90;2.70;;;;;;;;;;5066183;28;24391;-47
2022/06/23 11:21:16;;;;;;;2.80;2.70;;;;;;;;;;5065817;28;24391;-47
2022/06/23 11:23:41;;;;;;;3.00;2.80;;;;;;;;;;5066048;28;24393;-47
2022/06/23 11:26:16;;;;;;;3.10;2.90;;;;;;;;;;5066255;28;24413;-47
2022/06/23 11:28:56;;;;;;;3.00;2.90;;;;;;;;;;5066213;28;24402;-48
2022/06/23 11:31:30;;;;;;;3.08;2.88;;;;;;;;;;5065629;28;24800;-46
2022/06/23 11:34:11;;;;;;;3.22;3.03;;;;;;;;;;5066101;28;24401;-46
2022/06/23 11:36:55;;;;;;;2.80;2.70;;;;;;;;;;5065615;28;24825;-46
2022/06/23 11:39:39;;;;;;;3.58;3.38;;;;;;;;;;5065482;28;25027;-47
2022/06/23 11:42:21;;;;;;;3.33;3.13;;;;;;;;;;5065565;28;24459;-47
2022/06/23 11:45:05;;;;;;;3.40;3.20;;;;;;;;;;5065488;28;24517;-47
2022/06/23 11:47:45;;;;;;;3.22;3.03;;;;;;;;;;5065596;28;24394;-47
2022/06/23 11:50:16;;;;;;;3.30;3.10;;;;;;;;;;5065135;28;24870;-47
2022/06/23 11:52:50;;;;;;;3.13;2.92;;;;;;;;;;5065323;28;24441;-46
2022/06/23 11:55:25;;;;;;;2.83;2.63;;;;;;;;;;5065683;28;24395;-46
2022/06/23 11:57:56;;;;;;;3.00;2.80;;;;;;;;;;5065718;28;25007;-47
2022/06/23 12:00:47;;;;;;;3.00;2.80;;;;;;;;;;5065392;28;24826;-48
2022/06/23 12:03:29;;;;;;;2.70;2.50;;;;;;;;;;5056828;28;25043;-47
2022/06/23 12:06:09;;;;;;;2.95;2.80;;;;;;;;;;5065970;28;24465;-47
2022/06/23 12:08:35;;;;;;;3.22;3.03;;;;;;;;;;5065437;28;24379;-48
2022/06/23 12:11:00;;;;;;;3.47;3.17;;;;;;;;;;5065094;28;24423;-48
2022/06/23 12:13:26;;;;;;;3.40;3.20;;;;;;;;;;5065297;28;24537;-47
2022/06/23 12:15:52;;;;;;;3.85;3.55;;;;;;;;;;5065677;28;24393;-47
2022/06/23 12:18:22;;;;;;;2.90;2.70;;;;;;;;;;5065441;28;24387;-46
2022/06/23 12:20:52;;;;;;;3.20;3.00;;;;;;;;;;5065365;28;24449;-46
2022/06/23 12:23:24;;;;;;;2.90;2.70;;;;;;;;;;5065269;28;24971;-47
2022/06/23 12:25:55;;;;;;;3.10;2.90;;;;;;;;;;5046092;28;24431;-47
2022/06/23 12:28:44;;;;;;;2.50;2.40;;;;;;;;;;5045047;28;24946;-48
2022/06/23 12:31:12;;;;;;;2.67;2.58;;;;;;;;;;5043884;28;24450;-46
2022/06/23 12:33:43;;;;;;;3.17;2.97;;;;;;;;;;5044355;28;24507;-47
2022/06/23 12:36:12;;;;;;;3.17;2.97;;;;;;;;;;5043760;28;24422;-48
2022/06/23 12:38:40;;;;;;;2.80;2.60;;;;;;;;;;5044410;28;24403;-47
2022/06/23 12:41:11;;;;;;;3.15;2.90;;;;;;;;;;5043308;28;24426;-46
2022/06/23 12:43:41;;;;;;;3.30;3.10;;;;;;;;;;5044382;28;24415;-48
2022/06/23 12:46:11;;;;;;;3.03;2.83;;;;;;;;;;5043258;28;24415;-47
2022/06/23 12:48:48;;;;;;;3.08;2.80;;;;;;;;;;5046304;28;24488;-48
2022/06/23 12:51:24;;;;;;;2.70;2.60;;;;;;;;;;5063219;28;24437;-47
2022/06/23 12:54:02;;;;;;;3.10;2.90;;;;;;;;;;5059072;28;24723;-47
2022/06/23 12:56:33;;;;;;;3.00;2.90;;;;;;;;;;5043640;28;24956;-47
2022/06/23 12:59:04;;;;;;;3.30;3.10;;;;;;;;;;5044424;28;24510;-47
2022/06/23 13:01:37;;;;;;;2.90;2.70;;;;;;;;;;5043097;28;24392;-46
2022/06/23 13:04:05;;;;;;;2.60;2.50;;;;;;;;;;5047910;28;24568;-47
2022/06/23 13:06:42;;;;;;;2.70;2.60;;;;;;;;;;5046936;28;24495;-49
2022/06/23 13:09:27;;;;;;;2.90;2.70;;;;;;;;;;5047949;28;24457;-47
2022/06/23 13:11:59;;;;;;;2.80;2.70;;;;;;;;;;5046531;28;24447;-46
2022/06/23 13:14:28;;;;;;;3.20;3.00;;;;;;;;;;5047677;28;24412;-46
2022/06/23 13:16:59;;;;;;;3.05;2.85;;;;;;;;;;5048323;28;24945;-47
2022/06/23 13:19:35;;;;;;;2.90;2.70;;;;;;;;;;5047278;28;24814;-46
2022/06/23 13:22:07;;;;;;;3.00;2.80;;;;;;;;;;5045977;28;24864;-47
2022/06/23 13:24:34;;;;;;;2.90;2.70;;;;;;;;;;5045489;28;24464;-47
2022/06/23 13:27:00;;;;;;;2.90;2.70;;;;;;;;;;5047900;28;24403;-47
2022/06/23 13:29:27;;;;;;;3.33;3.03;;;;;;;;;;5045573;28;25225;-47
2022/06/23 13:31:57;;;;;;;2.90;2.70;;;;;;;;;;5047619;28;24581;-47
2022/06/23 13:34:27;;;;;;;2.90;2.60;;;;;;;;;;5045665;28;24431;-47
2022/06/23 13:36:55;;;;;;;2.50;2.40;;;;;;;;;;5048142;28;24762;-47
2022/06/23 13:39:24;;;;;;;2.70;2.60;;;;;;;;;;5045305;28;24422;-47
2022/06/23 13:41:52;;;;;;;2.63;2.42;;;;;;;;;;5047777;28;24553;-47
2022/06/23 13:44:29;;;;;;;2.60;2.40;;;;;;;;;;5047125;28;24443;-48
2022/06/23 13:46:59;;;;;;;2.22;2.13;;;;;;;;;;5047642;28;24395;-46
2022/06/23 13:49:28;;;;;;;2.30;2.20;;;;;;;;;;5046846;28;24996;-47
2022/06/23 13:51:57;;;;;;;2.00;1.90;;;;;;;;;;5067524;28;24464;-48
2022/06/23 13:54:29;;;;;;;2.20;2.10;;;;;;;;;;5049321;28;24419;-47
2022/06/23 13:57:13;;;;;;;2.50;2.30;;;;;;;;;;5047650;28;24407;-48
2022/06/23 13:59:41;;;;;;;2.70;2.60;;;;;;;;;;5047435;28;24486;-48
2022/06/23 14:02:15;;;;;;;2.40;2.30;;;;;;;;;;5047210;28;24948;-47
2022/06/23 14:04:46;;;;;;;2.90;2.70;;;;;;;;;;5047229;28;24994;-47
2022/06/23 14:07:14;;;;;;;2.75;2.45;;;;;;;;;;5047702;28;24518;-48
2022/06/23 14:09:43;;;;;;;2.90;2.70;;;;;;;;;;5047143;28;24399;-47
2022/06/23 14:12:24;;;;;;;2.70;2.60;;;;;;;;;;5047143;28;24418;-47
2022/06/23 14:14:58;;;;;;;2.90;2.80;;;;;;;;;;5047103;28;24429;-48
2022/06/23 14:17:31;;;;;;;3.10;2.90;;;;;;;;;;5047401;28;24495;-48
2022/06/23 14:20:01;;;;;;;3.03;2.83;;;;;;;;;;5047181;28;24388;-47
2022/06/23 14:22:34;;;;;;;3.10;2.90;;;;;;;;;;5046716;28;24774;-47
2022/06/23 14:25:25;;;;;;;3.45;2.90;;;;;;;;;;5047336;28;25096;-47
2022/06/23 14:27:59;;;;;;;3.20;3.00;;;;;;;;;;5047146;28;24430;-47
2022/06/23 14:30:27;;;;;;;3.35;3.00;;;;;;;;;;5046725;28;24796;-46
2022/06/23 14:33:05;;;;;;;3.00;2.80;;;;;;;;;;5046446;28;24445;-47
2022/06/23 14:35:37;;;;;;;3.20;3.00;;;;;;;;;;5046917;28;24460;-47
2022/06/23 14:38:15;;;;;;;3.40;3.20;;;;;;;;;;5046796;28;24468;-46
2022/06/23 14:40:45;;;;;;;3.20;3.00;;;;;;;;;;5046468;28;24399;-47
2022/06/23 14:43:23;;;;;;;2.70;2.50;;;;;;;;;;5046386;28;24395;-47
2022/06/23 14:46:01;;;;;;;3.40;3.10;;;;;;;;;;5046587;28;25126;-47
2022/06/23 14:48:36;;;;;;;3.10;2.90;;;;;;;;;;5046411;28;24407;-47
2022/06/23 14:51:20;;;;;;;3.22;2.92;;;;;;;;;;5061744;28;24534;-46
2022/06/23 14:53:58;;;;;;;3.40;3.20;;;;;;;;;;5065984;28;24391;-47
2022/06/23 14:56:32;;;;;;;3.38;3.17;;;;;;;;;;5066425;28;24407;-47
2022/06/23 14:59:06;;;;;;;3.60;3.40;;;;;;;;;;5066349;28;24750;-47
2022/06/23 15:01:36;;;;;;;3.30;3.10;;;;;;;;;;5066232;28;24414;-47
2022/06/23 15:04:08;;;;;;;3.30;3.10;;;;;;;;;;5065936;28;24401;-48
2022/06/23 15:06:57;;;;;;;3.40;3.20;;;;;;;;;;5066233;28;24477;-48
2022/06/23 15:09:32;;;;;;;3.50;3.30;;;;;;;;;;5060482;28;24418;-47
2022/06/23 15:12:10;;;;;;;3.70;3.50;;;;;;;;;;5065723;28;24849;-47
2022/06/23 15:14:42;;;;;;;3.90;3.60;;;;;;;;;;5065911;28;25208;-47
2022/06/23 15:17:22;;;;;;;3.50;3.30;;;;;;;;;;5066171;28;24406;-47
2022/06/23 15:20:13;;;;;;;2.83;2.72;;;;;;;;;;5065736;28;24960;-47
2022/06/23 15:25:55;;;;;;;3.20;3.00;;;;;;;;;;5002900;28;24985;-47
2022/06/23 15:28:24;;;;;;;3.50;3.30;;;;;;;;;;5057526;28;24411;-47